Time;durP1;ratioP1;P1;durP2;ratioP2;P2;SDS_P1;SDS_P2;PMS_P1;PMS_P2;Temp;Humidity;BMP_temperature;BMP_pressure;BME280_temperature;BME280_humidity;BME280_pressure;Samples;Min_cycle;Max_cycle;Signal;HPM_P1;HPM_P2
2022/12/17 13:05:59;;;;;;;34.67;15.93;;;;;;;;;;5033254;28;20047;-83
2022/12/17 13:08:24;;;;;;;40.70;18.52;;;;;;;;;;5034122;28;20033;-83
2022/12/17 13:10:52;;;;;;;37.92;18.98;;;;;;;;;;5033777;28;20036;-83
2022/12/17 13:13:18;;;;;;;42.80;20.58;;;;;;;;;;5016228;28;20040;-82
2022/12/17 13:15:48;;;;;;;66.20;28.08;;;;;;;;;;5033269;28;20029;-82
2022/12/17 13:18:39;;;;;;;42.17;21.65;;;;;;;;;;5033922;28;20120;-83
2022/12/17 13:21:13;;;;;;;36.00;18.13;;;;;;;;;;5015708;28;20088;-82
2022/12/17 13:23:39;;;;;;;34.60;17.73;;;;;;;;;;5033927;28;20029;-82
2022/12/17 13:26:16;;;;;;;31.85;16.92;;;;;;;;;;5015431;28;20034;-82
2022/12/17 13:28:47;;;;;;;30.70;15.93;;;;;;;;;;5033732;28;20111;-77
2022/12/17 13:31:21;;;;;;;35.75;18.48;;;;;;;;;;5034545;28;20052;-84
2022/12/17 13:33:53;;;;;;;34.60;17.33;;;;;;;;;;5034050;28;20040;-83
2022/12/17 13:36:37;;;;;;;33.75;17.40;;;;;;;;;;5033126;28;20036;-83
2022/12/17 13:39:32;;;;;;;35.00;16.25;;;;;;;;;;5033484;28;20053;-84
2022/12/17 13:41:57;;;;;;;32.83;16.23;;;;;;;;;;5033957;28;20032;-84
2022/12/17 13:44:25;;;;;;;35.47;17.45;;;;;;;;;;5033099;28;20100;-83
2022/12/17 13:46:52;;;;;;;36.50;17.42;;;;;;;;;;5033577;28;20037;-83
2022/12/17 13:49:19;;;;;;;38.53;18.30;;;;;;;;;;5033738;28;20044;-82
2022/12/17 13:51:45;;;;;;;35.63;16.65;;;;;;;;;;5035699;28;20033;-84
2022/12/17 13:54:15;;;;;;;31.42;15.50;;;;;;;;;;5020722;28;20036;-84
2022/12/17 13:56:41;;;;;;;32.90;15.48;;;;;;;;;;5038028;28;20746;-84
2022/12/17 13:59:17;;;;;;;30.75;16.05;;;;;;;;;;5020562;28;20025;-85
2022/12/17 14:01:49;;;;;;;34.38;16.05;;;;;;;;;;5038313;28;20063;-84
2022/12/17 14:04:25;;;;;;;35.72;17.30;;;;;;;;;;5037488;28;20036;-84
2022/12/17 14:06:52;;;;;;;34.20;16.73;;;;;;;;;;5037357;28;20123;-84
2022/12/17 14:09:20;;;;;;;35.55;17.00;;;;;;;;;;5038197;28;20035;-83
2022/12/17 14:14:37;;;;;;;28.85;14.63;;;;;;;;;;5036574;28;20693;-85
2022/12/17 14:17:03;;;;;;;29.75;14.50;;;;;;;;;;5036646;28;20030;-83
2022/12/17 14:19:31;;;;;;;28.92;14.23;;;;;;;;;;5018846;28;20033;-87
2022/12/17 14:21:57;;;;;;;31.35;14.23;;;;;;;;;;5036289;28;20025;-83
2022/12/17 14:24:27;;;;;;;29.50;15.05;;;;;;;;;;5036354;28;20033;-84
2022/12/17 14:26:59;;;;;;;29.23;14.95;;;;;;;;;;5036736;28;20057;-83
2022/12/17 14:29:30;;;;;;;31.30;14.30;;;;;;;;;;5037347;28;20033;-85
2022/12/17 14:31:58;;;;;;;29.70;14.57;;;;;;;;;;5019419;28;20083;-83
2022/12/17 14:34:24;;;;;;;34.60;16.65;;;;;;;;;;5018555;28;20073;-84
2022/12/17 14:36:58;;;;;;;29.13;14.65;;;;;;;;;;5036558;28;20421;-84
2022/12/17 14:39:29;;;;;;;30.20;14.38;;;;;;;;;;5018659;28;20067;-84
2022/12/17 14:44:53;;;;;;;28.50;14.27;;;;;;;;;;5041294;23;20042;-86
2022/12/17 14:47:29;;;;;;;27.65;14.40;;;;;;;;;;5018668;28;20064;-85
2022/12/17 14:50:00;;;;;;;30.45;15.13;;;;;;;;;;5019650;28;20629;-85
2022/12/17 14:52:29;;;;;;;29.88;14.52;;;;;;;;;;5037489;28;20108;-85
2022/12/17 14:54:54;;;;;;;28.92;14.35;;;;;;;;;;5037127;28;20033;-85
2022/12/17 14:57:21;;;;;;;27.40;13.57;;;;;;;;;;5036156;28;20053;-86
2022/12/17 14:59:48;;;;;;;27.58;13.98;;;;;;;;;;5035812;28;20021;-86
2022/12/17 15:02:26;;;;;;;27.65;13.63;;;;;;;;;;5018435;28;20111;-86
2022/12/17 15:04:58;;;;;;;28.45;14.27;;;;;;;;;;5030227;28;20030;-87
2022/12/17 15:07:26;;;;;;;38.78;18.30;;;;;;;;;;5025178;28;20049;-86
2022/12/17 15:09:55;;;;;;;32.60;17.10;;;;;;;;;;5033328;28;20484;-86
2022/12/17 15:12:22;;;;;;;31.77;16.58;;;;;;;;;;5017532;28;20531;-86
2022/12/17 15:14:48;;;;;;;34.65;17.75;;;;;;;;;;5034478;28;20124;-86
2022/12/17 15:17:15;;;;;;;34.35;17.33;;;;;;;;;;5000474;28;20112;-86
2022/12/17 15:19:40;;;;;;;38.35;18.90;;;;;;;;;;5028800;28;20045;-85
2022/12/17 15:22:13;;;;;;;37.45;17.73;;;;;;;;;;5036285;28;20037;-84
2022/12/17 15:24:38;;;;;;;39.45;18.63;;;;;;;;;;5027359;28;20032;-86
2022/12/17 15:27:04;;;;;;;40.30;20.15;;;;;;;;;;5037152;28;20040;-86
2022/12/17 15:29:30;;;;;;;36.50;19.20;;;;;;;;;;5019124;28;20026;-86
2022/12/17 15:31:56;;;;;;;36.53;18.88;;;;;;;;;;5036751;28;20083;-86
2022/12/17 15:34:21;;;;;;;33.97;17.92;;;;;;;;;;5035712;28;20025;-86
2022/12/17 15:36:47;;;;;;;30.98;16.58;;;;;;;;;;5018481;28;20381;-86
2022/12/17 15:39:12;;;;;;;35.90;18.52;;;;;;;;;;5018729;28;20025;-88
2022/12/17 15:44:22;;;;;;;34.17;17.23;;;;;;;;;;5017723;28;20494;-88
2022/12/17 15:46:47;;;;;;;41.10;18.75;;;;;;;;;;5018402;28;20047;-88
2022/12/17 15:49:13;;;;;;;39.97;18.73;;;;;;;;;;5036059;28;20060;-88
2022/12/17 15:51:38;;;;;;;31.83;16.27;;;;;;;;;;5018143;28;20044;-89
2022/12/17 15:54:04;;;;;;;34.92;17.98;;;;;;;;;;5025085;28;20035;-88
2022/12/17 15:56:29;;;;;;;35.20;19.20;;;;;;;;;;5006411;28;20049;-86
2022/12/17 15:58:58;;;;;;;35.50;19.42;;;;;;;;;;5036070;28;20030;-88
2022/12/17 16:01:24;;;;;;;32.38;16.45;;;;;;;;;;5017930;28;20060;-86
2022/12/17 16:03:51;;;;;;;34.25;16.05;;;;;;;;;;5035376;28;20056;-87
2022/12/17 16:06:16;;;;;;;32.70;15.80;;;;;;;;;;5016939;28;20033;-87
2022/12/17 16:08:42;;;;;;;36.13;18.02;;;;;;;;;;5022494;28;20437;-89
2022/12/17 16:11:09;;;;;;;36.35;17.90;;;;;;;;;;5015654;28;20032;-88
2022/12/17 16:13:35;;;;;;;47.60;21.77;;;;;;;;;;5015002;28;20030;-87
2022/12/17 16:16:01;;;;;;;62.22;27.45;;;;;;;;;;5013601;28;20079;-88
2022/12/17 16:18:26;;;;;;;91.18;37.05;;;;;;;;;;4997424;28;20120;-86
2022/12/17 16:20:52;;;;;;;43.85;21.38;;;;;;;;;;5014308;28;20038;-87
2022/12/17 16:23:19;;;;;;;38.20;17.35;;;;;;;;;;4996733;28;20037;-87
2022/12/17 16:25:44;;;;;;;27.48;13.02;;;;;;;;;;4995477;28;20033;-87
2022/12/17 16:28:10;;;;;;;24.08;11.98;;;;;;;;;;5022849;28;20037;-89
2022/12/17 16:30:35;;;;;;;30.00;13.07;;;;;;;;;;5026504;28;20645;-88
2022/12/17 16:33:01;;;;;;;22.08;10.63;;;;;;;;;;5026453;28;20021;-87
2022/12/17 16:35:29;;;;;;;30.23;13.93;;;;;;;;;;5037060;28;20445;-87
2022/12/17 16:37:55;;;;;;;26.80;13.32;;;;;;;;;;5036047;28;20104;-89
2022/12/17 16:40:20;;;;;;;24.33;12.65;;;;;;;;;;5035821;28;20443;-87
2022/12/17 16:42:46;;;;;;;28.45;13.60;;;;;;;;;;5017757;28;20037;-88
2022/12/17 16:45:11;;;;;;;29.98;14.00;;;;;;;;;;5034067;28;20033;-88
2022/12/17 16:47:37;;;;;;;30.27;13.63;;;;;;;;;;5017969;28;20030;-89
2022/12/17 16:50:02;;;;;;;24.58;12.77;;;;;;;;;;5035396;28;20037;-88
2022/12/17 16:52:28;;;;;;;29.02;13.43;;;;;;;;;;5017852;28;20111;-87
2022/12/17 16:54:53;;;;;;;33.13;15.60;;;;;;;;;;5017055;28;20025;-89
2022/12/17 16:57:19;;;;;;;37.15;16.77;;;;;;;;;;5035722;28;20030;-88
2022/12/17 16:59:45;;;;;;;43.08;18.83;;;;;;;;;;5017848;28;20394;-90
2022/12/17 17:02:14;;;;;;;40.22;17.48;;;;;;;;;;5035257;28;20044;-85
2022/12/17 17:04:40;;;;;;;30.83;15.30;;;;;;;;;;5017230;28;20486;-87
2022/12/17 17:07:05;;;;;;;27.60;13.98;;;;;;;;;;5017406;28;20060;-88
2022/12/17 17:09:31;;;;;;;26.42;14.23;;;;;;;;;;5034160;28;20040;-88
2022/12/17 17:11:57;;;;;;;32.85;13.68;;;;;;;;;;5016882;28;20071;-87
2022/12/17 17:14:24;;;;;;;45.17;17.20;;;;;;;;;;5015035;28;20040;-87
2022/12/17 17:16:51;;;;;;;31.13;13.65;;;;;;;;;;5000142;28;20505;-87
2022/12/17 17:19:17;;;;;;;25.10;12.32;;;;;;;;;;5019310;28;20033;-87
2022/12/17 17:21:53;;;;;;;29.77;13.82;;;;;;;;;;5019078;28;20033;-86
2022/12/17 17:24:20;;;;;;;27.10;12.90;;;;;;;;;;5020412;28;20057;-86
2022/12/17 17:26:46;;;;;;;21.92;11.15;;;;;;;;;;5019990;28;20528;-85
2022/12/17 17:29:12;;;;;;;20.08;9.27;;;;;;;;;;5035148;28;20026;-84
2022/12/17 17:31:38;;;;;;;19.35;9.82;;;;;;;;;;5019924;28;20033;-87
2022/12/17 17:34:11;;;;;;;18.20;10.07;;;;;;;;;;5040916;28;20044;-89
2022/12/17 17:36:38;;;;;;;21.73;11.48;;;;;;;;;;5018329;28;20363;-88
2022/12/17 17:39:03;;;;;;;19.88;10.32;;;;;;;;;;5018365;28;20516;-89
2022/12/17 17:41:30;;;;;;;21.85;10.10;;;;;;;;;;5000656;28;20100;-88
2022/12/17 17:43:57;;;;;;;24.98;11.85;;;;;;;;;;5015177;28;20056;-86
2022/12/17 17:46:23;;;;;;;21.73;11.05;;;;;;;;;;5039378;28;20029;-87
2022/12/17 17:48:49;;;;;;;24.63;11.73;;;;;;;;;;5030051;28;20042;-86
2022/12/17 17:51:18;;;;;;;41.67;17.88;;;;;;;;;;5040849;28;20052;-86
2022/12/17 17:53:45;;;;;;;27.45;11.75;;;;;;;;;;5023500;28;20052;-87
2022/12/17 17:56:14;;;;;;;20.65;9.95;;;;;;;;;;5038813;28;20041;-88
2022/12/17 17:58:55;;;;;;;16.23;8.35;;;;;;;;;;5021167;28;20097;-86
2022/12/17 18:01:27;;;;;;;16.65;7.53;;;;;;;;;;5038654;28;20450;-87
2022/12/17 18:03:55;;;;;;;13.77;7.53;;;;;;;;;;5038646;28;20029;-86
2022/12/17 18:06:21;;;;;;;18.02;8.65;;;;;;;;;;5021207;28;20025;-87
2022/12/17 18:08:47;;;;;;;16.25;7.53;;;;;;;;;;5038321;28;20112;-84
2022/12/17 18:11:16;;;;;;;17.20;8.82;;;;;;;;;;5019471;28;20241;-87
2022/12/17 18:13:54;;;;;;;29.63;12.15;;;;;;;;;;5020510;28;20037;-87
2022/12/17 18:16:36;;;;;;;131.70;26.23;;;;;;;;;;5037863;28;20026;-86
2022/12/17 18:19:06;;;;;;;43.17;12.65;;;;;;;;;;5037976;28;20052;-88
2022/12/17 18:21:32;;;;;;;40.08;12.52;;;;;;;;;;5037725;28;20037;-87
2022/12/17 18:24:00;;;;;;;49.20;15.73;;;;;;;;;;5036637;28;20057;-86
2022/12/17 18:26:28;;;;;;;85.20;29.35;;;;;;;;;;5018609;28;20032;-87
2022/12/17 18:28:55;;;;;;;58.85;19.55;;;;;;;;;;5020023;28;20025;-84
2022/12/17 18:31:23;;;;;;;61.03;18.63;;;;;;;;;;5017544;28;20029;-85
2022/12/17 18:33:55;;;;;;;51.53;17.55;;;;;;;;;;5036617;28;20138;-85
2022/12/17 18:36:24;;;;;;;43.35;15.50;;;;;;;;;;5044111;28;20479;-85
2022/12/17 18:39:09;;;;;;;38.95;14.05;;;;;;;;;;5022865;28;20021;-85
2022/12/17 18:44:19;;;;;;;34.35;13.65;;;;;;;;;;5022079;28;20033;-84
2022/12/17 18:46:45;;;;;;;28.40;12.38;;;;;;;;;;5021850;28;20470;-86
2022/12/17 18:49:14;;;;;;;30.52;13.73;;;;;;;;;;5021300;28;20030;-84
2022/12/17 18:51:41;;;;;;;28.85;12.77;;;;;;;;;;5038014;28;20037;-84
2022/12/17 18:54:11;;;;;;;26.63;11.73;;;;;;;;;;5036520;28;20045;-86
2022/12/17 18:56:37;;;;;;;27.45;12.88;;;;;;;;;;5037912;28;20045;-85
2022/12/17 18:59:03;;;;;;;25.58;11.23;;;;;;;;;;5018823;28;20038;-85
2022/12/17 19:01:32;;;;;;;23.08;10.20;;;;;;;;;;5035402;28;20061;-85
2022/12/17 19:04:02;;;;;;;22.58;9.35;;;;;;;;;;5016909;28;20112;-83
2022/12/17 19:06:28;;;;;;;18.83;9.35;;;;;;;;;;5048780;28;20037;-85
2022/12/17 19:08:53;;;;;;;17.85;8.55;;;;;;;;;;5004066;28;20559;-87
2022/12/17 19:11:20;;;;;;;16.73;8.68;;;;;;;;;;5003792;28;20490;-87
2022/12/17 19:13:46;;;;;;;17.95;9.77;;;;;;;;;;5038934;28;20017;-86
2022/12/17 19:16:15;;;;;;;19.63;9.95;;;;;;;;;;5020350;28;20038;-86
2022/12/17 19:18:41;;;;;;;19.88;10.40;;;;;;;;;;5037734;28;20029;-86
2022/12/17 19:21:11;;;;;;;26.73;12.93;;;;;;;;;;5003070;28;20041;-85
2022/12/17 19:23:36;;;;;;;19.48;10.23;;;;;;;;;;5019236;28;20080;-86
2022/12/17 19:26:22;;;;;;;22.60;11.60;;;;;;;;;;5036393;28;20025;-87
2022/12/17 19:28:50;;;;;;;23.45;11.13;;;;;;;;;;5036443;28;20131;-86
2022/12/17 19:31:18;;;;;;;21.67;10.77;;;;;;;;;;5036074;28;20044;-86
2022/12/17 19:33:44;;;;;;;23.00;10.52;;;;;;;;;;5017248;28;20029;-84
2022/12/17 19:36:12;;;;;;;21.90;10.07;;;;;;;;;;5027152;28;20053;-86
2022/12/17 19:38:38;;;;;;;24.95;11.20;;;;;;;;;;5038005;28;20044;-86
2022/12/17 19:41:05;;;;;;;20.40;10.98;;;;;;;;;;5037863;28;20033;-86
2022/12/17 19:43:32;;;;;;;24.75;11.13;;;;;;;;;;5037253;28;20087;-86
2022/12/17 19:46:03;;;;;;;27.50;13.55;;;;;;;;;;5036067;28;20138;-88
2022/12/17 19:48:30;;;;;;;23.98;11.63;;;;;;;;;;5018558;28;20026;-87
2022/12/17 19:50:56;;;;;;;25.63;12.27;;;;;;;;;;5036003;28;20021;-87
2022/12/17 19:53:25;;;;;;;29.05;13.40;;;;;;;;;;5017848;28;20029;-87
2022/12/17 19:55:51;;;;;;;27.70;13.43;;;;;;;;;;5034892;28;20025;-86
2022/12/17 19:58:17;;;;;;;42.53;16.30;;;;;;;;;;5017905;28;20026;-87
2022/12/17 20:00:42;;;;;;;52.83;19.00;;;;;;;;;;5035900;28;20037;-87
2022/12/17 20:03:08;;;;;;;21.55;10.07;;;;;;;;;;5017718;28;20032;-87
2022/12/17 20:05:33;;;;;;;22.92;10.73;;;;;;;;;;5034352;28;20104;-87
2022/12/17 20:08:00;;;;;;;24.80;11.77;;;;;;;;;;5034688;28;20101;-87
2022/12/17 20:10:25;;;;;;;21.83;10.68;;;;;;;;;;5000500;28;20053;-88
2022/12/17 20:12:51;;;;;;;25.42;11.05;;;;;;;;;;5034595;28;20102;-87
2022/12/17 20:15:16;;;;;;;27.90;11.38;;;;;;;;;;5017380;28;20041;-87
2022/12/17 20:17:41;;;;;;;29.60;12.13;;;;;;;;;;5034076;28;20053;-87
2022/12/17 20:20:07;;;;;;;34.58;12.60;;;;;;;;;;5015988;28;20037;-86
2022/12/17 20:22:33;;;;;;;29.08;12.50;;;;;;;;;;5033499;28;20060;-86
2022/12/17 20:25:00;;;;;;;65.30;23.13;;;;;;;;;;5028944;28;20091;-86
2022/12/17 20:27:25;;;;;;;47.45;16.88;;;;;;;;;;5035508;28;20045;-86
2022/12/17 20:29:51;;;;;;;54.75;18.10;;;;;;;;;;5018172;28;20028;-86
2022/12/17 20:32:19;;;;;;;97.95;26.38;;;;;;;;;;5018017;28;20124;-88
2022/12/17 20:34:45;;;;;;;79.75;17.90;;;;;;;;;;5034591;28;20052;-85
2022/12/17 20:37:10;;;;;;;75.72;17.85;;;;;;;;;;5044219;28;20045;-88
2022/12/17 20:39:36;;;;;;;92.20;17.58;;;;;;;;;;5035588;28;20028;-88
2022/12/17 20:42:01;;;;;;;64.90;18.38;;;;;;;;;;5001490;28;20386;-87
2022/12/17 20:44:27;;;;;;;89.00;25.60;;;;;;;;;;5040097;22;20045;-82
2022/12/17 20:46:53;;;;;;;63.78;18.50;;;;;;;;;;5036279;28;20033;-81
2022/12/17 20:49:18;;;;;;;52.53;16.50;;;;;;;;;;5019624;28;20371;-81
2022/12/17 20:51:44;;;;;;;47.97;15.70;;;;;;;;;;5018790;28;20108;-81
2022/12/17 20:54:10;;;;;;;44.65;14.65;;;;;;;;;;5018156;28;20478;-81
2022/12/17 20:56:35;;;;;;;47.38;14.30;;;;;;;;;;5018498;28;20032;-82
2022/12/17 20:59:03;;;;;;;71.53;15.05;;;;;;;;;;5018607;28;20033;-82
2022/12/17 21:01:31;;;;;;;54.72;13.77;;;;;;;;;;5001859;28;20028;-82
2022/12/17 21:03:58;;;;;;;78.13;13.77;;;;;;;;;;5017821;28;20060;-79
2022/12/17 21:06:34;;;;;;;58.10;15.15;;;;;;;;;;5043104;28;20049;-81
2022/12/17 21:09:01;;;;;;;66.68;19.15;;;;;;;;;;5031586;28;20022;-81
2022/12/17 21:11:28;;;;;;;58.55;16.65;;;;;;;;;;5021984;28;20013;-82
2022/12/17 21:13:55;;;;;;;55.83;17.15;;;;;;;;;;5036408;28;20068;-81
2022/12/17 21:16:24;;;;;;;58.60;16.45;;;;;;;;;;5036501;28;20033;-82
2022/12/17 21:18:49;;;;;;;72.30;18.77;;;;;;;;;;5035990;28;20378;-82
2022/12/17 21:21:21;;;;;;;93.65;21.33;;;;;;;;;;5019013;28;20036;-81
2022/12/17 21:23:48;;;;;;;68.75;17.55;;;;;;;;;;5036467;28;20168;-82
2022/12/17 21:26:18;;;;;;;42.50;14.95;;;;;;;;;;5017881;28;20017;-82
2022/12/17 21:28:45;;;;;;;68.20;13.40;;;;;;;;;;5018770;28;20041;-81
2022/12/17 21:31:17;;;;;;;58.53;14.93;;;;;;;;;;5036396;28;20444;-80
2022/12/17 21:33:42;;;;;;;75.72;16.10;;;;;;;;;;5036068;28;20087;-81
2022/12/17 21:36:08;;;;;;;75.57;16.52;;;;;;;;;;5017654;28;20025;-79
2022/12/17 21:38:34;;;;;;;54.17;13.23;;;;;;;;;;5018176;28;20175;-81
2022/12/17 21:41:05;;;;;;;48.65;15.70;;;;;;;;;;5018289;28;20064;-81
2022/12/17 21:43:31;;;;;;;70.97;17.80;;;;;;;;;;5035933;28;20067;-82
2022/12/17 21:45:57;;;;;;;95.63;16.67;;;;;;;;;;5017611;28;20120;-81
2022/12/17 21:48:22;;;;;;;61.80;17.58;;;;;;;;;;5018060;28;20378;-81
2022/12/17 21:50:48;;;;;;;92.60;16.48;;;;;;;;;;5018144;28;20036;-83
2022/12/17 21:53:14;;;;;;;68.47;15.35;;;;;;;;;;5035870;28;20037;-81
2022/12/17 21:55:40;;;;;;;57.05;15.25;;;;;;;;;;5001628;28;20041;-81
2022/12/17 21:58:07;;;;;;;79.80;15.65;;;;;;;;;;5017946;28;20108;-82
2022/12/17 22:00:33;;;;;;;74.20;16.27;;;;;;;;;;5018185;28;20033;-81
2022/12/17 22:02:59;;;;;;;62.03;15.45;;;;;;;;;;5018119;28;20033;-81
2022/12/17 22:05:24;;;;;;;116.95;16.95;;;;;;;;;;5017296;28;20033;-81
2022/12/17 22:07:51;;;;;;;75.75;16.27;;;;;;;;;;5035363;28;20022;-82
2022/12/17 22:10:16;;;;;;;84.63;17.58;;;;;;;;;;5018446;28;20544;-81
2022/12/17 22:15:26;;;;;;;104.85;15.55;;;;;;;;;;5039079;28;20033;-82
2022/12/17 22:17:52;;;;;;;100.97;17.33;;;;;;;;;;5021894;28;20032;-81
2022/12/17 22:20:18;;;;;;;59.55;15.95;;;;;;;;;;5021876;28;20038;-82
2022/12/17 22:22:44;;;;;;;61.05;16.02;;;;;;;;;;5039822;28;20059;-81
2022/12/17 22:25:10;;;;;;;75.32;15.45;;;;;;;;;;5004432;28;20029;-81
2022/12/17 22:27:36;;;;;;;39.55;14.02;;;;;;;;;;5039251;28;20051;-81
2022/12/17 22:33:01;;;;;;;65.63;13.88;;;;;;;;;;5021503;28;20025;-82
2022/12/17 22:35:41;;;;;;;69.70;13.70;;;;;;;;;;5021210;28;20034;-81
2022/12/17 22:38:07;;;;;;;65.30;13.80;;;;;;;;;;5021441;28;20029;-81
2022/12/17 22:40:34;;;;;;;66.43;13.82;;;;;;;;;;5021489;28;20025;-82
2022/12/17 22:45:43;;;;;;;70.50;14.18;;;;;;;;;;5037651;28;20449;-82
2022/12/17 22:48:11;;;;;;;56.50;13.98;;;;;;;;;;5021525;28;20045;-81
2022/12/17 22:50:37;;;;;;;42.47;13.02;;;;;;;;;;5021621;28;20108;-81
2022/12/17 22:53:03;;;;;;;49.03;13.32;;;;;;;;;;5038452;28;20036;-82
2022/12/17 22:55:30;;;;;;;43.97;12.20;;;;;;;;;;5020622;28;20036;-81
2022/12/17 22:57:56;;;;;;;34.75;12.90;;;;;;;;;;5020508;28;20171;-82
2022/12/17 23:00:25;;;;;;;33.60;11.65;;;;;;;;;;5020488;28;20055;-82
2022/12/17 23:02:52;;;;;;;43.00;13.80;;;;;;;;;;5038971;28;20025;-80
2022/12/17 23:05:19;;;;;;;42.42;11.98;;;;;;;;;;5037808;28;20492;-82
2022/12/17 23:07:44;;;;;;;36.95;12.65;;;;;;;;;;5038240;28;20029;-82
2022/12/17 23:10:10;;;;;;;26.05;11.07;;;;;;;;;;5020260;28;20083;-81
2022/12/17 23:12:51;;;;;;;32.95;11.50;;;;;;;;;;5020379;28;20040;-81
2022/12/17 23:15:32;;;;;;;31.33;11.63;;;;;;;;;;5019863;28;20037;-81
2022/12/17 23:17:59;;;;;;;33.97;12.88;;;;;;;;;;5037925;28;20040;-82
2022/12/17 23:20:27;;;;;;;55.20;12.23;;;;;;;;;;5020463;28;20025;-81
2022/12/17 23:22:52;;;;;;;48.58;12.75;;;;;;;;;;5020790;28;20021;-81
2022/12/17 23:25:18;;;;;;;51.35;12.80;;;;;;;;;;5037110;28;20060;-82
2022/12/17 23:27:45;;;;;;;45.40;13.38;;;;;;;;;;5020285;28;20045;-82
2022/12/17 23:30:12;;;;;;;70.10;13.23;;;;;;;;;;5037915;28;20033;-81
2022/12/17 23:32:38;;;;;;;34.35;11.80;;;;;;;;;;5020105;28;20068;-80
2022/12/17 23:35:05;;;;;;;63.63;13.20;;;;;;;;;;5003042;28;20029;-81
2022/12/17 23:37:31;;;;;;;41.30;13.38;;;;;;;;;;5037905;28;20428;-81
2022/12/17 23:39:57;;;;;;;55.83;13.23;;;;;;;;;;5020002;28;20451;-82
2022/12/17 23:42:22;;;;;;;42.92;13.73;;;;;;;;;;5037589;28;20033;-81
2022/12/17 23:44:48;;;;;;;38.78;12.40;;;;;;;;;;5036823;28;20053;-83
2022/12/17 23:47:13;;;;;;;31.27;12.73;;;;;;;;;;5037766;28;20037;-81
2022/12/17 23:49:39;;;;;;;47.28;13.20;;;;;;;;;;5021642;28;20076;-81
2022/12/17 23:52:04;;;;;;;44.88;13.30;;;;;;;;;;5038000;28;20120;-81
2022/12/17 23:54:30;;;;;;;77.60;12.95;;;;;;;;;;5037193;28;20029;-81
2022/12/17 23:56:55;;;;;;;67.80;12.23;;;;;;;;;;5019631;28;20645;-82
2022/12/17 23:59:21;;;;;;;33.22;11.90;;;;;;;;;;5037188;28;20533;-82
